Airfield :
LOGIN :

Register | Disclaimer

   EN    FR    IT 

 










Legend :    VFR   Marginal VFR   IFR   Intensive IFR   Very Intensive IFR
Visi :
Ceiling :
>= 8 km
>= 3000ft
5 to 8 km
1000 to 3000 ft
1500m to 5 km
500 to 1000 ft
800 to 1500m
200 to 500 ft
< 800m
< 200 ft
Symbols :   Thunderstorms  Fog  Heavy snow  Heavy precipitations  Wind > 20 kt
SIGMETs :     Misc.  Thunderstorms  Icing  Turbulence  Mountain Waves  Volcanic Ashes






- Airport Elevation : 51 ft
- IATA code : GWT


EDXW - Westerland-Sylt Island

CURRENT METAR :
  • 300220Z AUTO 16015KT 3500 // OVC002/// 10/10 Q1007

EXPIRED METARs :
  • 300150Z AUTO 16014KT 2700 // OVC003/// 10/10 Q1008
  • 300120Z AUTO 16014KT 4900 // OVC004/// 10/10 Q1008
  • 300050Z AUTO 16013KT 6000 // BKN003/// OVC011/// 10/10 Q1008
  • 300020Z AUTO 17013KT 3800 // OVC003/// 11/10 Q1009
  • 292350Z AUTO 17012KT 5000 // OVC006/// 11/10 Q1009

Expired Forecast.



MET'MAP, your aeronautical weather chart ! - Copyright ORBIFLY December 2007 - Disclaimer

ORBIFLY MET'MAP TEAM :

Programming & Development : Alexandra Zaïnal
Concept & original design : Baudouin d'Aumeries
Assistance for programming : Marc-Olivier Méhu
Technical & hardware support : Manuel Goepfert

Contact : metmap@orbifly.com




SOURCES & CREDITS :

   NOAA